sensor_id;sensor_type;location;lat;lon;timestamp;P1;durP1;ratioP1;P2;durP2;ratioP2
21162;SDS011;10739;52.198;20.908;2023-05-10T00:00:17;8.43;;;4.90;;
21162;SDS011;10739;52.198;20.908;2023-05-10T00:02:43;8.80;;;4.50;;
21162;SDS011;10739;52.198;20.908;2023-05-10T00:05:10;9.55;;;5.10;;
21162;SDS011;10739;52.198;20.908;2023-05-10T00:07:36;10.90;;;4.63;;
21162;SDS011;10739;52.198;20.908;2023-05-10T00:10:02;7.15;;;4.60;;
21162;SDS011;10739;52.198;20.908;2023-05-10T00:12:29;7.57;;;4.97;;
21162;SDS011;10739;52.198;20.908;2023-05-10T00:14:55;14.60;;;5.47;;
21162;SDS011;10739;52.198;20.908;2023-05-10T00:17:22;8.85;;;4.90;;
21162;SDS011;10739;52.198;20.908;2023-05-10T00:19:48;10.80;;;4.43;;
21162;SDS011;10739;52.198;20.908;2023-05-10T00:22:14;8.30;;;4.70;;
21162;SDS011;10739;52.198;20.908;2023-05-10T00:24:41;7.00;;;4.28;;
21162;SDS011;10739;52.198;20.908;2023-05-10T00:27:07;8.73;;;4.57;;
21162;SDS011;10739;52.198;20.908;2023-05-10T00:29:33;8.88;;;4.50;;
21162;SDS011;10739;52.198;20.908;2023-05-10T00:32:00;10.32;;;4.72;;
21162;SDS011;10739;52.198;20.908;2023-05-10T00:34:26;6.93;;;4.55;;
21162;SDS011;10739;52.198;20.908;2023-05-10T00:36:52;7.57;;;4.53;;
21162;SDS011;10739;52.198;20.908;2023-05-10T00:39:18;8.57;;;4.82;;
21162;SDS011;10739;52.198;20.908;2023-05-10T00:41:45;9.10;;;4.57;;
21162;SDS011;10739;52.198;20.908;2023-05-10T00:44:11;9.68;;;4.65;;
21162;SDS011;10739;52.198;20.908;2023-05-10T00:46:37;9.45;;;4.75;;
21162;SDS011;10739;52.198;20.908;2023-05-10T00:49:04;8.75;;;4.50;;
21162;SDS011;10739;52.198;20.908;2023-05-10T00:51:31;5.68;;;4.53;;
21162;SDS011;10739;52.198;20.908;2023-05-10T00:53:57;7.75;;;5.00;;
21162;SDS011;10739;52.198;20.908;2023-05-10T00:56:25;10.68;;;5.32;;
21162;SDS011;10739;52.198;20.908;2023-05-10T00:58:53;9.27;;;4.80;;
21162;SDS011;10739;52.198;20.908;2023-05-10T01:01:20;9.20;;;4.95;;
21162;SDS011;10739;52.198;20.908;2023-05-10T01:03:46;8.60;;;4.43;;
21162;SDS011;10739;52.198;20.908;2023-05-10T01:06:13;8.02;;;4.90;;
21162;SDS011;10739;52.198;20.908;2023-05-10T01:08:40;9.50;;;4.75;;
21162;SDS011;10739;52.198;20.908;2023-05-10T01:11:06;11.73;;;4.75;;
21162;SDS011;10739;52.198;20.908;2023-05-10T01:13:33;9.65;;;4.90;;
21162;SDS011;10739;52.198;20.908;2023-05-10T01:16:06;14.02;;;5.07;;
21162;SDS011;10739;52.198;20.908;2023-05-10T01:18:33;7.63;;;5.57;;
21162;SDS011;10739;52.198;20.908;2023-05-10T01:21:19;10.57;;;4.82;;
21162;SDS011;10739;52.198;20.908;2023-05-10T01:30:18;9.45;;;4.63;;
21162;SDS011;10739;52.198;20.908;2023-05-10T01:42:02;8.32;;;5.00;;
21162;SDS011;10739;52.198;20.908;2023-05-10T01:44:43;11.15;;;5.00;;
21162;SDS011;10739;52.198;20.908;2023-05-10T01:47:31;9.32;;;4.53;;
21162;SDS011;10739;52.198;20.908;2023-05-10T01:49:59;8.77;;;4.82;;
21162;SDS011;10739;52.198;20.908;2023-05-10T01:52:33;11.07;;;4.40;;
21162;SDS011;10739;52.198;20.908;2023-05-10T01:55:06;5.53;;;4.22;;
21162;SDS011;10739;52.198;20.908;2023-05-10T01:57:42;10.57;;;4.28;;
21162;SDS011;10739;52.198;20.908;2023-05-10T02:00:13;10.67;;;4.87;;
21162;SDS011;10739;52.198;20.908;2023-05-10T02:02:46;7.15;;;4.63;;
21162;SDS011;10739;52.198;20.908;2023-05-10T02:05:15;7.72;;;5.00;;
21162;SDS011;10739;52.198;20.908;2023-05-10T02:07:43;12.45;;;4.60;;
21162;SDS011;10739;52.198;20.908;2023-05-10T02:10:10;8.07;;;4.63;;
21162;SDS011;10739;52.198;20.908;2023-05-10T02:12:43;7.55;;;4.97;;
21162;SDS011;10739;52.198;20.908;2023-05-10T02:15:12;8.15;;;4.68;;
21162;SDS011;10739;52.198;20.908;2023-05-10T02:17:46;9.93;;;4.78;;
21162;SDS011;10739;52.198;20.908;2023-05-10T02:20:14;9.73;;;4.70;;
21162;SDS011;10739;52.198;20.908;2023-05-10T02:22:45;7.95;;;4.90;;
21162;SDS011;10739;52.198;20.908;2023-05-10T02:25:18;9.43;;;4.72;;
21162;SDS011;10739;52.198;20.908;2023-05-10T02:27:48;7.43;;;4.50;;
21162;SDS011;10739;52.198;20.908;2023-05-10T02:30:16;8.57;;;4.90;;
21162;SDS011;10739;52.198;20.908;2023-05-10T02:32:45;8.93;;;5.13;;
21162;SDS011;10739;52.198;20.908;2023-05-10T02:35:12;7.15;;;4.90;;
21162;SDS011;10739;52.198;20.908;2023-05-10T02:37:40;7.60;;;5.15;;
21162;SDS011;10739;52.198;20.908;2023-05-10T02:40:09;6.65;;;4.78;;
21162;SDS011;10739;52.198;20.908;2023-05-10T02:42:37;8.05;;;4.70;;
21162;SDS011;10739;52.198;20.908;2023-05-10T02:45:09;7.30;;;4.47;;
21162;SDS011;10739;52.198;20.908;2023-05-10T02:47:39;8.65;;;4.47;;
21162;SDS011;10739;52.198;20.908;2023-05-10T02:50:06;10.13;;;4.85;;
21162;SDS011;10739;52.198;20.908;2023-05-10T02:52:40;6.68;;;4.60;;
21162;SDS011;10739;52.198;20.908;2023-05-10T02:55:16;12.98;;;4.63;;
21162;SDS011;10739;52.198;20.908;2023-05-10T02:57:56;12.45;;;4.50;;
21162;SDS011;10739;52.198;20.908;2023-05-10T03:02:52;9.43;;;4.78;;
21162;SDS011;10739;52.198;20.908;2023-05-10T03:05:19;7.90;;;5.10;;
21162;SDS011;10739;52.198;20.908;2023-05-10T03:07:45;16.15;;;4.72;;
21162;SDS011;10739;52.198;20.908;2023-05-10T03:10:13;7.32;;;4.60;;
21162;SDS011;10739;52.198;20.908;2023-05-10T03:15:58;7.15;;;4.82;;
21162;SDS011;10739;52.198;20.908;2023-05-10T03:18:37;8.77;;;4.60;;
21162;SDS011;10739;52.198;20.908;2023-05-10T03:21:16;10.52;;;4.40;;
21162;SDS011;10739;52.198;20.908;2023-05-10T03:23:50;10.27;;;4.85;;
21162;SDS011;10739;52.198;20.908;2023-05-10T03:26:25;9.48;;;6.38;;
21162;SDS011;10739;52.198;20.908;2023-05-10T03:28:53;9.20;;;4.60;;
21162;SDS011;10739;52.198;20.908;2023-05-10T03:31:21;7.65;;;4.75;;
21162;SDS011;10739;52.198;20.908;2023-05-10T03:33:48;10.75;;;5.28;;
21162;SDS011;10739;52.198;20.908;2023-05-10T03:36:15;8.70;;;4.82;;
21162;SDS011;10739;52.198;20.908;2023-05-10T03:38:42;8.02;;;4.80;;
21162;SDS011;10739;52.198;20.908;2023-05-10T03:41:08;10.95;;;5.05;;
21162;SDS011;10739;52.198;20.908;2023-05-10T03:43:35;6.00;;;4.25;;
21162;SDS011;10739;52.198;20.908;2023-05-10T03:46:02;11.02;;;4.85;;
21162;SDS011;10739;52.198;20.908;2023-05-10T03:48:30;10.27;;;5.28;;
21162;SDS011;10739;52.198;20.908;2023-05-10T03:50:58;7.85;;;4.97;;
21162;SDS011;10739;52.198;20.908;2023-05-10T03:53:24;9.93;;;4.95;;
21162;SDS011;10739;52.198;20.908;2023-05-10T03:55:50;10.65;;;5.03;;
21162;SDS011;10739;52.198;20.908;2023-05-10T03:58:17;10.32;;;5.00;;
21162;SDS011;10739;52.198;20.908;2023-05-10T04:00:43;11.13;;;4.95;;
21162;SDS011;10739;52.198;20.908;2023-05-10T04:03:10;8.27;;;4.97;;
21162;SDS011;10739;52.198;20.908;2023-05-10T04:05:38;14.18;;;5.22;;
21162;SDS011;10739;52.198;20.908;2023-05-10T04:08:04;12.43;;;5.38;;
21162;SDS011;10739;52.198;20.908;2023-05-10T04:10:31;12.25;;;4.68;;
21162;SDS011;10739;52.198;20.908;2023-05-10T04:12:57;10.70;;;5.05;;
21162;SDS011;10739;52.198;20.908;2023-05-10T04:15:24;9.98;;;4.45;;
21162;SDS011;10739;52.198;20.908;2023-05-10T04:17:50;7.72;;;4.90;;
21162;SDS011;10739;52.198;20.908;2023-05-10T04:20:16;9.25;;;4.65;;
21162;SDS011;10739;52.198;20.908;2023-05-10T04:22:43;6.60;;;4.43;;
21162;SDS011;10739;52.198;20.908;2023-05-10T04:25:09;10.35;;;4.50;;
21162;SDS011;10739;52.198;20.908;2023-05-10T04:27:35;5.82;;;3.95;;
21162;SDS011;10739;52.198;20.908;2023-05-10T04:30:02;10.63;;;4.90;;
21162;SDS011;10739;52.198;20.908;2023-05-10T04:32:28;9.15;;;4.78;;
21162;SDS011;10739;52.198;20.908;2023-05-10T04:34:54;10.95;;;4.80;;
21162;SDS011;10739;52.198;20.908;2023-05-10T04:37:21;9.18;;;4.88;;
21162;SDS011;10739;52.198;20.908;2023-05-10T04:39:48;8.25;;;4.93;;
21162;SDS011;10739;52.198;20.908;2023-05-10T04:42:14;9.25;;;5.00;;
21162;SDS011;10739;52.198;20.908;2023-05-10T04:44:41;10.80;;;4.60;;
21162;SDS011;10739;52.198;20.908;2023-05-10T04:47:08;7.65;;;4.10;;
21162;SDS011;10739;52.198;20.908;2023-05-10T04:49:34;7.88;;;4.13;;
21162;SDS011;10739;52.198;20.908;2023-05-10T04:52:01;8.00;;;5.05;;
21162;SDS011;10739;52.198;20.908;2023-05-10T04:54:27;13.38;;;4.38;;
21162;SDS011;10739;52.198;20.908;2023-05-10T04:56:53;15.05;;;5.20;;
21162;SDS011;10739;52.198;20.908;2023-05-10T04:59:20;17.67;;;5.03;;
21162;SDS011;10739;52.198;20.908;2023-05-10T05:01:46;8.63;;;5.47;;
21162;SDS011;10739;52.198;20.908;2023-05-10T05:04:12;11.10;;;4.50;;
21162;SDS011;10739;52.198;20.908;2023-05-10T05:06:39;7.82;;;4.35;;
21162;SDS011;10739;52.198;20.908;2023-05-10T05:09:06;8.65;;;4.65;;
21162;SDS011;10739;52.198;20.908;2023-05-10T05:11:32;9.32;;;4.53;;
21162;SDS011;10739;52.198;20.908;2023-05-10T05:13:58;7.03;;;4.53;;
21162;SDS011;10739;52.198;20.908;2023-05-10T05:16:25;8.55;;;4.30;;
21162;SDS011;10739;52.198;20.908;2023-05-10T05:18:51;15.00;;;4.38;;
21162;SDS011;10739;52.198;20.908;2023-05-10T05:21:19;7.38;;;4.30;;
21162;SDS011;10739;52.198;20.908;2023-05-10T05:23:45;8.10;;;4.97;;
21162;SDS011;10739;52.198;20.908;2023-05-10T05:26:12;10.73;;;5.13;;
21162;SDS011;10739;52.198;20.908;2023-05-10T05:28:38;10.65;;;4.38;;
21162;SDS011;10739;52.198;20.908;2023-05-10T05:31:05;6.20;;;4.13;;
21162;SDS011;10739;52.198;20.908;2023-05-10T05:33:35;7.32;;;4.13;;
21162;SDS011;10739;52.198;20.908;2023-05-10T05:36:02;9.32;;;5.00;;
21162;SDS011;10739;52.198;20.908;2023-05-10T05:38:30;8.27;;;4.22;;
21162;SDS011;10739;52.198;20.908;2023-05-10T05:40:57;5.97;;;4.07;;
21162;SDS011;10739;52.198;20.908;2023-05-10T05:43:23;9.63;;;4.32;;
21162;SDS011;10739;52.198;20.908;2023-05-10T05:45:49;5.60;;;3.72;;
21162;SDS011;10739;52.198;20.908;2023-05-10T05:48:19;9.43;;;4.38;;
21162;SDS011;10739;52.198;20.908;2023-05-10T05:50:45;6.43;;;3.95;;
21162;SDS011;10739;52.198;20.908;2023-05-10T05:53:12;9.43;;;3.90;;
21162;SDS011;10739;52.198;20.908;2023-05-10T05:55:38;6.13;;;3.70;;
21162;SDS011;10739;52.198;20.908;2023-05-10T05:58:26;10.25;;;3.63;;
21162;SDS011;10739;52.198;20.908;2023-05-10T06:00:52;8.40;;;3.65;;
21162;SDS011;10739;52.198;20.908;2023-05-10T06:03:19;8.07;;;4.28;;
21162;SDS011;10739;52.198;20.908;2023-05-10T06:05:57;10.45;;;4.20;;
21162;SDS011;10739;52.198;20.908;2023-05-10T06:08:24;8.63;;;3.70;;
21162;SDS011;10739;52.198;20.908;2023-05-10T06:10:51;8.43;;;4.05;;
21162;SDS011;10739;52.198;20.908;2023-05-10T06:16:28;4.73;;;3.67;;
21162;SDS011;10739;52.198;20.908;2023-05-10T06:18:57;8.55;;;3.95;;
21162;SDS011;10739;52.198;20.908;2023-05-10T06:21:40;6.07;;;3.88;;
21162;SDS011;10739;52.198;20.908;2023-05-10T06:24:07;10.02;;;3.50;;
21162;SDS011;10739;52.198;20.908;2023-05-10T06:26:33;8.38;;;3.85;;
21162;SDS011;10739;52.198;20.908;2023-05-10T06:28:59;10.07;;;3.40;;
21162;SDS011;10739;52.198;20.908;2023-05-10T06:31:26;9.88;;;3.47;;
21162;SDS011;10739;52.198;20.908;2023-05-10T06:33:52;9.48;;;3.63;;
21162;SDS011;10739;52.198;20.908;2023-05-10T06:36:19;6.07;;;3.53;;
21162;SDS011;10739;52.198;20.908;2023-05-10T06:38:45;5.30;;;3.28;;
21162;SDS011;10739;52.198;20.908;2023-05-10T06:41:11;4.63;;;3.42;;
21162;SDS011;10739;52.198;20.908;2023-05-10T06:43:37;6.40;;;3.28;;
21162;SDS011;10739;52.198;20.908;2023-05-10T06:46:06;8.15;;;3.20;;
21162;SDS011;10739;52.198;20.908;2023-05-10T06:48:32;5.15;;;3.05;;
21162;SDS011;10739;52.198;20.908;2023-05-10T06:50:59;6.88;;;3.10;;
21162;SDS011;10739;52.198;20.908;2023-05-10T06:53:26;9.90;;;3.45;;
21162;SDS011;10739;52.198;20.908;2023-05-10T06:55:52;7.57;;;3.20;;
21162;SDS011;10739;52.198;20.908;2023-05-10T06:58:19;12.88;;;3.17;;
21162;SDS011;10739;52.198;20.908;2023-05-10T07:00:45;7.25;;;3.72;;
21162;SDS011;10739;52.198;20.908;2023-05-10T07:03:12;11.32;;;3.03;;
21162;SDS011;10739;52.198;20.908;2023-05-10T07:05:38;10.57;;;2.83;;
21162;SDS011;10739;52.198;20.908;2023-05-10T07:08:05;6.85;;;2.70;;
21162;SDS011;10739;52.198;20.908;2023-05-10T07:10:32;4.90;;;2.85;;
21162;SDS011;10739;52.198;20.908;2023-05-10T07:12:58;8.50;;;2.95;;
21162;SDS011;10739;52.198;20.908;2023-05-10T07:15:26;6.13;;;3.10;;
21162;SDS011;10739;52.198;20.908;2023-05-10T07:17:53;3.55;;;2.53;;
21162;SDS011;10739;52.198;20.908;2023-05-10T07:20:19;8.40;;;2.95;;
21162;SDS011;10739;52.198;20.908;2023-05-10T07:22:45;10.23;;;2.70;;
21162;SDS011;10739;52.198;20.908;2023-05-10T07:25:12;3.72;;;2.33;;
21162;SDS011;10739;52.198;20.908;2023-05-10T07:27:38;8.00;;;2.53;;
21162;SDS011;10739;52.198;20.908;2023-05-10T07:30:04;5.80;;;2.97;;
21162;SDS011;10739;52.198;20.908;2023-05-10T07:32:32;6.72;;;2.92;;
21162;SDS011;10739;52.198;20.908;2023-05-10T07:34:58;8.10;;;2.53;;
21162;SDS011;10739;52.198;20.908;2023-05-10T07:37:24;11.70;;;2.58;;
21162;SDS011;10739;52.198;20.908;2023-05-10T07:39:50;10.77;;;2.42;;
21162;SDS011;10739;52.198;20.908;2023-05-10T07:42:17;5.43;;;1.80;;
21162;SDS011;10739;52.198;20.908;2023-05-10T07:44:43;5.57;;;1.98;;
21162;SDS011;10739;52.198;20.908;2023-05-10T07:47:10;8.57;;;1.75;;
21162;SDS011;10739;52.198;20.908;2023-05-10T07:49:37;5.70;;;2.47;;
21162;SDS011;10739;52.198;20.908;2023-05-10T07:52:03;7.00;;;3.10;;
21162;SDS011;10739;52.198;20.908;2023-05-10T07:54:30;8.82;;;2.28;;
21162;SDS011;10739;52.198;20.908;2023-05-10T07:56:56;8.23;;;2.33;;
21162;SDS011;10739;52.198;20.908;2023-05-10T07:59:22;9.88;;;2.50;;
21162;SDS011;10739;52.198;20.908;2023-05-10T08:01:49;11.15;;;2.33;;
21162;SDS011;10739;52.198;20.908;2023-05-10T08:04:15;5.80;;;2.70;;
21162;SDS011;10739;52.198;20.908;2023-05-10T08:06:41;12.70;;;2.95;;
21162;SDS011;10739;52.198;20.908;2023-05-10T08:09:08;4.80;;;2.50;;
21162;SDS011;10739;52.198;20.908;2023-05-10T08:11:34;9.50;;;2.33;;
21162;SDS011;10739;52.198;20.908;2023-05-10T08:14:01;4.28;;;2.15;;
21162;SDS011;10739;52.198;20.908;2023-05-10T08:16:27;3.10;;;2.20;;
21162;SDS011;10739;52.198;20.908;2023-05-10T08:18:54;3.38;;;2.03;;
21162;SDS011;10739;52.198;20.908;2023-05-10T08:21:20;11.18;;;2.90;;
21162;SDS011;10739;52.198;20.908;2023-05-10T08:23:47;5.47;;;2.85;;
21162;SDS011;10739;52.198;20.908;2023-05-10T08:26:14;8.90;;;2.33;;
21162;SDS011;10739;52.198;20.908;2023-05-10T08:28:40;2.55;;;2.05;;
21162;SDS011;10739;52.198;20.908;2023-05-10T08:31:06;3.53;;;2.10;;
21162;SDS011;10739;52.198;20.908;2023-05-10T08:33:33;4.28;;;2.30;;
21162;SDS011;10739;52.198;20.908;2023-05-10T08:35:59;4.32;;;2.10;;
21162;SDS011;10739;52.198;20.908;2023-05-10T08:38:25;4.93;;;2.42;;
21162;SDS011;10739;52.198;20.908;2023-05-10T08:40:52;5.15;;;2.25;;
21162;SDS011;10739;52.198;20.908;2023-05-10T08:43:22;4.38;;;2.10;;
21162;SDS011;10739;52.198;20.908;2023-05-10T08:45:53;4.80;;;2.30;;
21162;SDS011;10739;52.198;20.908;2023-05-10T08:48:23;7.50;;;2.30;;
21162;SDS011;10739;52.198;20.908;2023-05-10T08:50:51;6.45;;;2.50;;
21162;SDS011;10739;52.198;20.908;2023-05-10T08:53:20;7.63;;;2.22;;
21162;SDS011;10739;52.198;20.908;2023-05-10T08:55:50;4.82;;;2.45;;
21162;SDS011;10739;52.198;20.908;2023-05-10T08:58:17;3.38;;;2.05;;
21162;SDS011;10739;52.198;20.908;2023-05-10T09:00:45;8.35;;;2.47;;
21162;SDS011;10739;52.198;20.908;2023-05-10T09:03:15;9.18;;;2.42;;
21162;SDS011;10739;52.198;20.908;2023-05-10T09:05:42;5.35;;;2.03;;
21162;SDS011;10739;52.198;20.908;2023-05-10T09:08:10;9.65;;;1.88;;
21162;SDS011;10739;52.198;20.908;2023-05-10T09:10:38;6.72;;;2.53;;
21162;SDS011;10739;52.198;20.908;2023-05-10T09:13:14;4.18;;;2.20;;
21162;SDS011;10739;52.198;20.908;2023-05-10T09:15:43;7.07;;;2.30;;
21162;SDS011;10739;52.198;20.908;2023-05-10T09:18:11;8.52;;;2.40;;
21162;SDS011;10739;52.198;20.908;2023-05-10T09:20:38;5.32;;;2.30;;
21162;SDS011;10739;52.198;20.908;2023-05-10T09:23:04;7.88;;;2.40;;
21162;SDS011;10739;52.198;20.908;2023-05-10T09:25:31;12.50;;;2.70;;
21162;SDS011;10739;52.198;20.908;2023-05-10T09:27:59;8.27;;;2.20;;
21162;SDS011;10739;52.198;20.908;2023-05-10T09:30:26;3.50;;;2.28;;
21162;SDS011;10739;52.198;20.908;2023-05-10T09:32:54;4.20;;;2.22;;
21162;SDS011;10739;52.198;20.908;2023-05-10T09:35:26;3.78;;;2.53;;
21162;SDS011;10739;52.198;20.908;2023-05-10T09:37:57;6.70;;;2.40;;
21162;SDS011;10739;52.198;20.908;2023-05-10T09:40:29;5.93;;;2.67;;
21162;SDS011;10739;52.198;20.908;2023-05-10T09:43:00;8.55;;;2.67;;
21162;SDS011;10739;52.198;20.908;2023-05-10T09:45:33;6.80;;;2.53;;
21162;SDS011;10739;52.198;20.908;2023-05-10T09:48:01;5.93;;;2.60;;
21162;SDS011;10739;52.198;20.908;2023-05-10T09:50:29;3.17;;;2.38;;
21162;SDS011;10739;52.198;20.908;2023-05-10T09:52:56;7.53;;;2.45;;
21162;SDS011;10739;52.198;20.908;2023-05-10T09:55:37;7.03;;;2.20;;
21162;SDS011;10739;52.198;20.908;2023-05-10T09:58:04;8.02;;;2.33;;
21162;SDS011;10739;52.198;20.908;2023-05-10T10:00:42;9.48;;;2.60;;
21162;SDS011;10739;52.198;20.908;2023-05-10T10:03:19;12.38;;;2.85;;
21162;SDS011;10739;52.198;20.908;2023-05-10T10:08:33;5.65;;;2.20;;
21162;SDS011;10739;52.198;20.908;2023-05-10T10:10:59;5.15;;;2.35;;
21162;SDS011;10739;52.198;20.908;2023-05-10T10:13:26;3.72;;;2.17;;
21162;SDS011;10739;52.198;20.908;2023-05-10T10:15:53;5.35;;;2.50;;
21162;SDS011;10739;52.198;20.908;2023-05-10T10:18:20;7.43;;;2.67;;
21162;SDS011;10739;52.198;20.908;2023-05-10T10:20:52;6.55;;;2.63;;
21162;SDS011;10739;52.198;20.908;2023-05-10T10:23:21;5.78;;;2.50;;
21162;SDS011;10739;52.198;20.908;2023-05-10T10:25:48;6.43;;;2.45;;
21162;SDS011;10739;52.198;20.908;2023-05-10T10:34:19;3.67;;;2.10;;
21162;SDS011;10739;52.198;20.908;2023-05-10T10:36:55;5.40;;;2.40;;
21162;SDS011;10739;52.198;20.908;2023-05-10T10:39:23;6.72;;;2.30;;
21162;SDS011;10739;52.198;20.908;2023-05-10T10:41:51;5.97;;;2.60;;
21162;SDS011;10739;52.198;20.908;2023-05-10T10:57:47;8.63;;;2.40;;
21162;SDS011;10739;52.198;20.908;2023-05-10T11:05:47;6.97;;;2.60;;
21162;SDS011;10739;52.198;20.908;2023-05-10T11:08:19;7.35;;;2.33;;
21162;SDS011;10739;52.198;20.908;2023-05-10T11:11:03;6.93;;;2.53;;
21162;SDS011;10739;52.198;20.908;2023-05-10T11:18:52;6.30;;;2.35;;
21162;SDS011;10739;52.198;20.908;2023-05-10T11:21:24;3.58;;;2.30;;
21162;SDS011;10739;52.198;20.908;2023-05-10T11:23:55;5.88;;;2.00;;
21162;SDS011;10739;52.198;20.908;2023-05-10T11:26:24;7.40;;;2.50;;
21162;SDS011;10739;52.198;20.908;2023-05-10T11:28:56;10.68;;;2.78;;
21162;SDS011;10739;52.198;20.908;2023-05-10T11:31:25;7.53;;;2.40;;
21162;SDS011;10739;52.198;20.908;2023-05-10T11:33:53;12.90;;;2.30;;
21162;SDS011;10739;52.198;20.908;2023-05-10T11:36:23;10.50;;;2.33;;
21162;SDS011;10739;52.198;20.908;2023-05-10T11:38:52;6.43;;;2.70;;
21162;SDS011;10739;52.198;20.908;2023-05-10T11:41:21;10.98;;;2.72;;
21162;SDS011;10739;52.198;20.908;2023-05-10T11:43:50;6.85;;;2.42;;
21162;SDS011;10739;52.198;20.908;2023-05-10T11:46:22;5.78;;;2.53;;
21162;SDS011;10739;52.198;20.908;2023-05-10T11:48:53;8.15;;;2.30;;
21162;SDS011;10739;52.198;20.908;2023-05-10T11:51:35;6.60;;;2.53;;
21162;SDS011;10739;52.198;20.908;2023-05-10T11:54:05;5.72;;;2.20;;
21162;SDS011;10739;52.198;20.908;2023-05-10T11:56:34;5.32;;;2.38;;
21162;SDS011;10739;52.198;20.908;2023-05-10T11:59:05;13.20;;;2.35;;
21162;SDS011;10739;52.198;20.908;2023-05-10T12:01:33;13.52;;;2.65;;
21162;SDS011;10739;52.198;20.908;2023-05-10T12:04:00;11.40;;;2.15;;
21162;SDS011;10739;52.198;20.908;2023-05-10T12:06:27;7.78;;;2.53;;
21162;SDS011;10739;52.198;20.908;2023-05-10T12:08:56;5.40;;;2.60;;
21162;SDS011;10739;52.198;20.908;2023-05-10T12:11:24;6.90;;;2.50;;
21162;SDS011;10739;52.198;20.908;2023-05-10T12:13:53;7.13;;;2.67;;
21162;SDS011;10739;52.198;20.908;2023-05-10T12:16:25;7.22;;;2.03;;
21162;SDS011;10739;52.198;20.908;2023-05-10T12:18:58;7.93;;;2.65;;
21162;SDS011;10739;52.198;20.908;2023-05-10T12:21:26;8.98;;;2.40;;
21162;SDS011;10739;52.198;20.908;2023-05-10T12:23:59;5.60;;;2.25;;
21162;SDS011;10739;52.198;20.908;2023-05-10T12:26:28;6.15;;;2.50;;
21162;SDS011;10739;52.198;20.908;2023-05-10T12:28:55;5.65;;;2.53;;
21162;SDS011;10739;52.198;20.908;2023-05-10T12:31:57;4.60;;;2.10;;
21162;SDS011;10739;52.198;20.908;2023-05-10T12:36:59;6.70;;;2.28;;
21162;SDS011;10739;52.198;20.908;2023-05-10T12:39:37;4.07;;;2.45;;
21162;SDS011;10739;52.198;20.908;2023-05-10T12:42:06;6.35;;;2.20;;
21162;SDS011;10739;52.198;20.908;2023-05-10T12:44:32;8.10;;;2.15;;
21162;SDS011;10739;52.198;20.908;2023-05-10T12:46:58;5.63;;;2.35;;
21162;SDS011;10739;52.198;20.908;2023-05-10T12:49:24;6.13;;;2.28;;
21162;SDS011;10739;52.198;20.908;2023-05-10T12:51:51;15.73;;;2.63;;
21162;SDS011;10739;52.198;20.908;2023-05-10T12:54:17;5.10;;;2.10;;
21162;SDS011;10739;52.198;20.908;2023-05-10T12:56:43;9.90;;;2.65;;
21162;SDS011;10739;52.198;20.908;2023-05-10T12:59:10;3.90;;;2.28;;
21162;SDS011;10739;52.198;20.908;2023-05-10T13:01:36;4.93;;;2.22;;
21162;SDS011;10739;52.198;20.908;2023-05-10T13:04:02;9.35;;;2.10;;
21162;SDS011;10739;52.198;20.908;2023-05-10T13:06:28;10.05;;;2.25;;
21162;SDS011;10739;52.198;20.908;2023-05-10T13:08:56;4.10;;;1.92;;
21162;SDS011;10739;52.198;20.908;2023-05-10T13:11:23;6.90;;;2.10;;
21162;SDS011;10739;52.198;20.908;2023-05-10T13:13:49;4.50;;;2.20;;
21162;SDS011;10739;52.198;20.908;2023-05-10T13:16:16;4.43;;;2.15;;
21162;SDS011;10739;52.198;20.908;2023-05-10T13:18:42;11.73;;;3.00;;
21162;SDS011;10739;52.198;20.908;2023-05-10T13:21:09;7.13;;;2.50;;
21162;SDS011;10739;52.198;20.908;2023-05-10T13:23:36;9.27;;;2.50;;
21162;SDS011;10739;52.198;20.908;2023-05-10T13:26:02;6.68;;;2.28;;
21162;SDS011;10739;52.198;20.908;2023-05-10T13:28:29;9.15;;;2.28;;
21162;SDS011;10739;52.198;20.908;2023-05-10T13:30:55;7.30;;;2.47;;
21162;SDS011;10739;52.198;20.908;2023-05-10T13:33:22;6.65;;;2.13;;
21162;SDS011;10739;52.198;20.908;2023-05-10T13:35:49;4.45;;;1.90;;
21162;SDS011;10739;52.198;20.908;2023-05-10T13:38:15;9.38;;;2.30;;
21162;SDS011;10739;52.198;20.908;2023-05-10T13:40:41;12.90;;;2.35;;
21162;SDS011;10739;52.198;20.908;2023-05-10T13:43:08;7.47;;;2.15;;
21162;SDS011;10739;52.198;20.908;2023-05-10T13:45:34;10.95;;;2.20;;
21162;SDS011;10739;52.198;20.908;2023-05-10T13:48:00;4.22;;;1.98;;
21162;SDS011;10739;52.198;20.908;2023-05-10T13:50:27;8.20;;;2.47;;
21162;SDS011;10739;52.198;20.908;2023-05-10T13:52:53;6.90;;;2.28;;
21162;SDS011;10739;52.198;20.908;2023-05-10T13:55:20;5.15;;;2.00;;
21162;SDS011;10739;52.198;20.908;2023-05-10T13:57:46;5.15;;;2.22;;
21162;SDS011;10739;52.198;20.908;2023-05-10T14:00:13;5.82;;;2.05;;
21162;SDS011;10739;52.198;20.908;2023-05-10T14:02:39;8.88;;;2.22;;
21162;SDS011;10739;52.198;20.908;2023-05-10T14:05:06;6.57;;;2.13;;
21162;SDS011;10739;52.198;20.908;2023-05-10T14:07:32;6.57;;;2.13;;
21162;SDS011;10739;52.198;20.908;2023-05-10T14:09:59;6.50;;;2.00;;
21162;SDS011;10739;52.198;20.908;2023-05-10T14:12:25;4.32;;;2.20;;
21162;SDS011;10739;52.198;20.908;2023-05-10T14:14:52;14.82;;;2.30;;
21162;SDS011;10739;52.198;20.908;2023-05-10T14:17:18;5.13;;;2.10;;
21162;SDS011;10739;52.198;20.908;2023-05-10T14:19:45;8.38;;;2.28;;
21162;SDS011;10739;52.198;20.908;2023-05-10T14:22:11;9.95;;;2.28;;
21162;SDS011;10739;52.198;20.908;2023-05-10T14:24:37;4.63;;;2.22;;
21162;SDS011;10739;52.198;20.908;2023-05-10T14:27:04;7.05;;;2.72;;
21162;SDS011;10739;52.198;20.908;2023-05-10T14:29:31;7.13;;;2.10;;
21162;SDS011;10739;52.198;20.908;2023-05-10T14:31:58;7.38;;;2.20;;
21162;SDS011;10739;52.198;20.908;2023-05-10T14:34:24;4.28;;;2.38;;
21162;SDS011;10739;52.198;20.908;2023-05-10T14:36:50;6.55;;;2.13;;
21162;SDS011;10739;52.198;20.908;2023-05-10T14:39:17;3.40;;;2.20;;
21162;SDS011;10739;52.198;20.908;2023-05-10T14:41:43;4.20;;;2.15;;
21162;SDS011;10739;52.198;20.908;2023-05-10T14:44:11;9.68;;;2.00;;
21162;SDS011;10739;52.198;20.908;2023-05-10T14:46:37;4.00;;;2.00;;
21162;SDS011;10739;52.198;20.908;2023-05-10T14:49:04;6.85;;;2.58;;
21162;SDS011;10739;52.198;20.908;2023-05-10T14:51:31;6.20;;;2.22;;
21162;SDS011;10739;52.198;20.908;2023-05-10T14:53:57;12.40;;;6.40;;
21162;SDS011;10739;52.198;20.908;2023-05-10T14:56:23;9.13;;;2.63;;
21162;SDS011;10739;52.198;20.908;2023-05-10T14:58:51;4.82;;;2.05;;
21162;SDS011;10739;52.198;20.908;2023-05-10T15:01:17;4.70;;;2.20;;
21162;SDS011;10739;52.198;20.908;2023-05-10T15:03:44;6.03;;;2.20;;
21162;SDS011;10739;52.198;20.908;2023-05-10T15:06:10;7.00;;;2.30;;
21162;SDS011;10739;52.198;20.908;2023-05-10T15:08:40;5.43;;;2.35;;
21162;SDS011;10739;52.198;20.908;2023-05-10T15:11:07;3.97;;;2.05;;
21162;SDS011;10739;52.198;20.908;2023-05-10T15:13:33;5.60;;;2.25;;
21162;SDS011;10739;52.198;20.908;2023-05-10T15:15:59;7.00;;;2.35;;
21162;SDS011;10739;52.198;20.908;2023-05-10T15:18:26;6.15;;;2.30;;
21162;SDS011;10739;52.198;20.908;2023-05-10T15:20:52;6.80;;;2.17;;
21162;SDS011;10739;52.198;20.908;2023-05-10T15:23:18;3.30;;;2.35;;
21162;SDS011;10739;52.198;20.908;2023-05-10T15:25:44;7.70;;;2.40;;
21162;SDS011;10739;52.198;20.908;2023-05-10T15:28:11;2.15;;;1.95;;
21162;SDS011;10739;52.198;20.908;2023-05-10T15:30:37;4.95;;;2.55;;
21162;SDS011;10739;52.198;20.908;2023-05-10T15:33:03;3.78;;;2.03;;
21162;SDS011;10739;52.198;20.908;2023-05-10T15:35:30;3.35;;;2.40;;